createdAt,value
2023-03-17T00:00:55.800Z,85.07
2023-03-17T00:05:59.994Z,86.42
2023-03-17T00:11:06.388Z,85.96
2023-03-17T00:16:20.714Z,88.15
2023-03-17T00:21:30.643Z,89.97
2023-03-17T00:26:33.403Z,88.55
2023-03-17T00:31:35.914Z,88.22
2023-03-17T00:36:37.824Z,87.64
2023-03-17T00:46:50.833Z,89.37
2023-03-17T00:51:55.065Z,89.04
2023-03-17T00:56:57.099Z,88.74
2023-03-17T01:01:58.923Z,89.90
2023-03-17T01:07:00.769Z,88.91
2023-03-17T01:12:02.489Z,89.10
2023-03-17T01:17:14.058Z,89.51
2023-03-17T01:22:15.697Z,89.09
2023-03-17T01:27:19.283Z,88.85
2023-03-17T01:32:22.215Z,87.58
2023-03-17T01:37:23.990Z,87.11
2023-03-17T01:42:25.830Z,87.14
2023-03-17T01:47:32.621Z,87.74
2023-03-17T01:52:38.359Z,88.65
2023-03-17T01:57:51.292Z,88.87
2023-03-17T02:02:56.254Z,88.98
2023-03-17T02:07:58.774Z,89.16
2023-03-17T02:13:05.821Z,88.94
2023-03-17T02:18:09.429Z,89.34
2023-03-17T02:23:11.812Z,90.59
2023-03-17T02:28:19.774Z,91.65
2023-03-17T02:33:24.086Z,91.45
2023-03-17T02:38:28.738Z,90.64
2023-03-17T02:43:30.701Z,90.04
2023-03-17T02:48:34.262Z,89.96
2023-03-17T02:53:36.597Z,89.96
2023-03-17T02:58:38.531Z,90.24
2023-03-17T03:03:40.752Z,89.38
2023-03-17T03:08:42.878Z,88.46
2023-03-17T03:13:45.040Z,88.20
2023-03-17T03:18:47.269Z,87.96
2023-03-17T03:23:49.020Z,88.40
2023-03-17T03:28:51.230Z,90.17
2023-03-17T03:33:53.220Z,90.47
2023-03-17T03:38:54.963Z,90.95
2023-03-17T03:43:57.007Z,90.33
2023-03-17T03:48:58.766Z,89.86
2023-03-17T03:54:01.364Z,90.37
2023-03-17T03:59:03.982Z,91.02
2023-03-17T04:04:05.805Z,90.58
2023-03-17T04:09:07.628Z,89.82
2023-03-17T04:14:09.368Z,90.14
2023-03-17T04:19:11.359Z,91.46
2023-03-17T04:24:14.950Z,92.46
2023-03-17T04:29:17.095Z,91.24
2023-03-17T04:34:19.472Z,90.19
2023-03-17T04:39:21.282Z,89.69
2023-03-17T04:44:23.011Z,90.06
2023-03-17T04:49:24.928Z,89.99
2023-03-17T04:54:26.858Z,90.20
2023-03-17T04:59:28.602Z,90.81
2023-03-17T05:14:20.302Z,91.11
2023-03-17T05:19:21.450Z,91.49
2023-03-17T05:24:22.827Z,92.92
2023-03-17T05:39:03.984Z,91.57
2023-03-17T05:44:05.929Z,92.60
2023-03-17T05:49:07.947Z,92.85
2023-03-17T05:54:09.832Z,92.44
2023-03-17T05:59:14.947Z,92.29
2023-03-17T06:04:16.714Z,91.91
2023-03-17T06:09:18.444Z,91.10
2023-03-17T06:30:45.767Z,87.28
2023-03-17T06:35:47.656Z,86.29
2023-03-17T06:40:49.417Z,85.78
2023-03-17T06:45:52.453Z,85.41
2023-03-17T06:50:54.844Z,85.68
2023-03-17T06:55:57.004Z,85.60
2023-03-17T07:00:59.855Z,84.96
2023-03-17T07:06:05.898Z,82.64
2023-03-17T07:11:08.026Z,81.80
2023-03-17T07:16:12.135Z,81.03
2023-03-17T07:21:14.191Z,80.24
2023-03-17T07:26:16.013Z,79.42
2023-03-17T07:31:17.935Z,78.80
2023-03-17T07:36:19.912Z,76.67
2023-03-17T07:41:22.384Z,76.17
2023-03-17T07:46:24.319Z,75.21
2023-03-17T07:51:28.113Z,71.29
2023-03-17T07:56:31.663Z,65.93
2023-03-17T08:01:33.824Z,60.80
2023-03-17T08:06:36.000Z,56.65
2023-03-17T08:11:38.020Z,53.09
2023-03-17T08:16:39.948Z,51.16
2023-03-17T08:21:42.259Z,50.70
2023-03-17T08:26:47.230Z,49.09
2023-03-17T08:31:49.179Z,49.96
2023-03-17T08:36:51.699Z,49.52
2023-03-17T08:41:54.006Z,49.61
2023-03-17T08:46:56.997Z,49.08
2023-03-17T08:51:58.720Z,45.81
2023-03-17T08:57:01.789Z,46.12
2023-03-17T09:02:03.561Z,43.01
2023-03-17T09:07:08.415Z,41.79
2023-03-17T09:12:11.481Z,41.50
2023-03-17T09:17:14.465Z,42.20
2023-03-17T09:22:18.984Z,41.74
2023-03-17T09:27:21.053Z,40.90
2023-03-17T09:32:22.865Z,38.28
2023-03-17T09:37:24.568Z,37.76
2023-03-17T09:43:00.710Z,36.99
2023-03-17T09:48:24.361Z,35.62
2023-03-17T09:53:35.939Z,35.61
2023-03-17T09:58:40.670Z,35.37
2023-03-17T10:03:42.973Z,35.16
2023-03-17T10:08:54.863Z,34.01
2023-03-17T10:14:11.297Z,34.05
2023-03-17T10:19:32.827Z,33.45
2023-03-17T10:25:01.711Z,34.12
2023-03-17T10:30:13.536Z,34.09
2023-03-17T10:35:16.902Z,32.97
2023-03-17T10:40:28.727Z,33.94
2023-03-17T10:45:33.673Z,31.20
2023-03-17T10:50:41.201Z,30.91
2023-03-17T10:55:49.891Z,28.85
2023-03-17T11:00:57.372Z,30.65
2023-03-17T11:06:05.634Z,30.62
2023-03-17T11:11:29.831Z,29.26
2023-03-17T11:16:38.025Z,28.85
2023-03-17T11:21:51.639Z,27.17
2023-03-17T11:26:53.382Z,26.74
2023-03-17T11:32:00.743Z,26.59
2023-03-17T11:37:16.965Z,27.78
2023-03-17T11:42:36.437Z,28.39
2023-03-17T11:48:02.593Z,27.24
2023-03-17T11:53:38.532Z,26.47
2023-03-17T11:58:49.899Z,26.16
2023-03-17T12:04:09.095Z,25.42
2023-03-17T12:09:40.919Z,26.24
2023-03-17T12:14:48.801Z,25.19
2023-03-17T12:20:12.072Z,25.23
2023-03-17T12:25:19.716Z,25.94
2023-03-17T12:30:30.069Z,26.20
2023-03-17T12:35:35.268Z,26.52
2023-03-17T12:41:03.137Z,26.35
2023-03-17T12:46:30.017Z,26.43
2023-03-17T12:51:50.118Z,27.09
2023-03-17T12:56:51.893Z,26.80
2023-03-17T13:02:06.215Z,26.63
2023-03-17T13:07:24.750Z,27.53
2023-03-17T13:12:57.386Z,27.51
2023-03-17T13:18:17.678Z,26.47
2023-03-17T13:23:23.829Z,26.78
2023-03-17T13:28:33.817Z,26.89
2023-03-17T13:33:43.309Z,26.46
2023-03-17T13:39:17.632Z,26.37
2023-03-17T13:44:39.126Z,25.75
2023-03-17T13:49:41.018Z,26.48
2023-03-17T13:54:49.661Z,26.25
2023-03-17T13:59:51.413Z,26.00
2023-03-17T14:05:01.878Z,25.95
2023-03-17T14:10:05.621Z,25.56
2023-03-17T14:15:33.173Z,25.79
2023-03-17T14:20:35.361Z,25.65
2023-03-17T14:25:39.842Z,25.10
2023-03-17T14:30:54.033Z,25.01
2023-03-17T14:36:01.558Z,24.87
2023-03-17T14:41:06.615Z,25.21
2023-03-17T14:46:16.501Z,24.82
2023-03-17T14:51:28.930Z,25.25
2023-03-17T14:57:02.108Z,25.52
2023-03-17T15:02:22.509Z,25.87
2023-03-17T15:07:39.925Z,26.50
2023-03-17T15:12:42.316Z,25.82
2023-03-17T15:17:44.037Z,25.48
2023-03-17T15:22:59.546Z,25.79
2023-03-17T15:28:01.420Z,26.61
2023-03-17T15:33:04.447Z,27.12
2023-03-17T15:38:06.340Z,27.64
2023-03-17T15:43:14.017Z,27.28
2023-03-17T15:48:21.561Z,26.95
2023-03-17T15:53:23.590Z,27.43
2023-03-17T15:58:26.159Z,28.39
2023-03-17T16:03:35.262Z,28.81
2023-03-17T16:08:38.559Z,29.53
2023-03-17T16:13:40.220Z,29.51
2023-03-17T16:18:42.276Z,30.54
2023-03-17T16:23:44.169Z,31.71
2023-03-17T16:28:47.892Z,32.17
2023-03-17T16:33:51.283Z,32.07
2023-03-17T16:38:53.609Z,32.73
2023-03-17T16:44:01.195Z,33.08
2023-03-17T16:49:04.126Z,34.44
2023-03-17T16:54:06.356Z,34.77
2023-03-17T16:59:16.046Z,35.90
2023-03-17T17:04:17.788Z,36.73
2023-03-17T17:09:19.549Z,37.55
2023-03-17T17:14:21.320Z,38.05
2023-03-17T17:19:23.022Z,38.83
2023-03-17T17:24:24.686Z,40.29
2023-03-17T17:29:26.386Z,41.35
2023-03-17T17:34:28.076Z,41.27
2023-03-17T17:39:29.830Z,41.70
2023-03-17T17:44:31.544Z,42.86
2023-03-17T17:49:33.260Z,43.70
2023-03-17T17:54:35.951Z,44.01
2023-03-17T17:59:38.004Z,44.83
2023-03-17T18:04:40.165Z,44.90
2023-03-17T18:09:41.911Z,45.10
2023-03-17T18:14:43.560Z,45.16
2023-03-17T18:19:45.920Z,44.95
2023-03-17T18:24:49.255Z,45.08
2023-03-17T18:29:54.203Z,45.30
2023-03-17T18:35:02.812Z,45.81
2023-03-17T18:40:13.832Z,46.35
2023-03-17T18:45:18.336Z,46.45
2023-03-17T18:50:22.127Z,46.56
2023-03-17T18:55:24.170Z,47.09
2023-03-17T19:00:27.034Z,47.79
2023-03-17T19:05:29.189Z,48.24
2023-03-17T19:10:31.932Z,48.59
2023-03-17T19:15:34.183Z,48.99
2023-03-17T19:20:38.242Z,49.53
2023-03-17T19:25:39.992Z,50.02
2023-03-17T19:30:44.959Z,50.31
2023-03-17T19:35:54.548Z,51.02
2023-03-17T19:40:57.529Z,52.02
2023-03-17T19:46:01.049Z,52.42
2023-03-17T19:51:06.733Z,52.20
2023-03-17T19:56:08.681Z,53.11
2023-03-17T20:01:11.030Z,53.48
2023-03-17T20:06:14.139Z,53.77
2023-03-17T20:11:16.231Z,53.85
2023-03-17T20:16:18.887Z,53.93
2023-03-17T20:21:21.262Z,53.62
2023-03-17T20:26:25.676Z,53.82
2023-03-17T20:31:28.985Z,53.82
2023-03-17T20:36:30.857Z,53.84
2023-03-17T20:41:32.624Z,54.04
2023-03-17T20:46:34.433Z,54.46
2023-03-17T20:51:37.773Z,54.98
2023-03-17T20:56:39.883Z,55.70
2023-03-17T21:01:44.769Z,56.13
2023-03-17T21:06:47.142Z,56.62
2023-03-17T21:11:49.325Z,57.28
2023-03-17T21:16:51.068Z,57.94
2023-03-17T21:21:52.763Z,58.30
2023-03-17T21:27:13.490Z,59.33
2023-03-17T21:32:15.980Z,59.96
2023-03-17T21:37:18.551Z,59.88
2023-03-17T21:42:20.291Z,60.09
2023-03-17T21:47:21.889Z,61.01
2023-03-17T21:52:25.188Z,61.31
2023-03-17T21:57:29.856Z,61.69
2023-03-17T22:02:31.596Z,62.07
2023-03-17T22:07:33.514Z,63.20
2023-03-17T22:12:36.588Z,64.16
2023-03-17T22:17:40.579Z,64.05
2023-03-17T22:22:44.275Z,63.86
2023-03-17T22:27:45.987Z,63.79
2023-03-17T22:32:51.169Z,63.89
2023-03-17T22:37:53.020Z,64.02
2023-03-17T22:42:57.666Z,64.71
2023-03-17T22:48:00.127Z,65.46
2023-03-17T22:53:04.876Z,66.27
2023-03-17T22:58:06.647Z,67.36
2023-03-17T23:03:08.606Z,66.44
2023-03-17T23:08:10.693Z,67.42
2023-03-17T23:13:12.766Z,68.35
2023-03-17T23:18:14.649Z,68.46
2023-03-17T23:23:16.653Z,67.57
2023-03-17T23:28:19.245Z,67.19
2023-03-17T23:33:23.001Z,67.13
2023-03-17T23:38:25.189Z,67.40
2023-03-17T23:43:27.500Z,67.35
2023-03-17T23:48:29.323Z,67.71
2023-03-17T23:53:31.665Z,68.04
2023-03-17T23:58:33.460Z,68.41
